Tiempo atmosférico en la estación meteorológica de Figueres, Girona (47 m.)



Fecha
DESCASC
Temp. máxima en grados centígrados (hora)
DESCASC
Temp. mínima en grados centígrados (hora)
DESCASC
Temp. media en grados centígrados
DESCASC
Racha de viento máxima en m/sg (hora)
DESCASC
Velocidad máxima media en intervalos de 10 minutos(hora)
DESCASC
Precipitaciones diarias en mm
DESCASC
Precipitaciones de 00:00 a 06:00 en mm
DESCASC
Precipitaciones de 06:00 a 12:00 en mm
DESCASC
Precipitaciones de 12:00 a 18:00 en mm
DESCASC
Precipitaciones de 18:00 a 24:00 en mm
DESCASC
18-02-2018 15.2 (13:50) 5.2 (08:00) 10.2 11.39 (16:50) 5.56 (17:00) 0.2 0 0 0 0.2
17-02-2018 14.8 (12:00) 9.9 (23:10) 12.3 8.89 (20:10) 3.89 (20:00) 2.6 0 0 1.8 0.8
16-02-2018 16.5 (15:50) 7.1 (04:30) 11.8 4.17 (16:20) 1.94 (16:30) 0.6 0 0.4 0.2 0
15-02-2018 18.1 (14:20) 7.1 (00:00) 12.6 4.17 (15:00) 2.22 (15:30) 0 0 0 0 0
14-02-2018 13.1 (15:00) 4.1 (00:00) 8.6 7.22 (07:20) 3.61 (08:30) 0.2 0 0 0 0.2
13-02-2018 11.4 (17:00) -2.2 (-00:0) 4.6 9.44 (02:00) 4.44 (01:10) 0 0 0 0 0
12-02-2018 10.6 (00:00) 6.1 (00:00) 8.4 18.06 (14:30) 8.89 (14:00) 0 0 0 0 0
11-02-2018 11.2 (22:50) 1.5 (00:00) 6.3 10 (23:30) 4.72 (23:50) 0.4 0 0.2 0.2 0
10-02-2018 9.9 (15:20) 4.7 (00:00) 7.3 20.28 (13:30) 8.89 (14:20) 0 0 0 0 0
09-02-2018 10.3 (14:20) -1 (-00:0) 4.7 7.78 (01:20) 3.61 (04:30) 0 0 0 0 0
08-02-2018 7.6 (15:10) 2.3 (00:00) 4.9 13.33 (11:20) 5.83 (10:30) 0 0 0 0 0
07-02-2018 8.9 (12:00) 3.9 (00:00) 6.4 15.83 (01:00) 8.06 (03:20) 0 0 0 0 0
06-02-2018 9.4 (12:30) 5.8 (00:00) 7.6 18.89 (20:00) 7.78 (20:10) 1 1 0 0 0
05-02-2018 11 (16:00) 4.8 (00:00) 7.9 8.89 (04:50) 4.17 (02:30) 23.8 10.4 9 0.6 3.8
04-02-2018 10 (13:20) 2.4 (00:00) 6.2 6.39 (22:50) 3.33 (22:40) 6.8 0 0 2.4 4.4
03-02-2018 13.6 (13:40) 4.6 (00:00) 9.1 16.39 (03:10) 6.39 (03:40) 0 0 0 0 0
02-02-2018 9.5 (16:10) 6.6 (00:00) 8 18.33 (12:20) 7.78 (16:50) 0 0 0 0 0
01-02-2018 9.1 (11:50) 4.2 (00:00) 6.7 9.72 (23:50) 3.89 (23:30) 6.2 0 0.2 6 0
31-01-2018 15 (15:10) 6.2 (00:00) 10.6 4.72 (15:20) 1.94 (15:20) 0 0 0 0 0
30-01-2018 14.4 (15:00) 3.6 (00:00) 9 4.17 (16:00) 2.5 (16:00) 0 0 0 0 0
29-01-2018 16.2 (14:00) 3.8 (00:00) 10 4.17 (15:30) 2.22 (15:10) 0 0 0 0 0
28-01-2018 18.4 (15:00) 6.7 (00:00) 12.5 8.33 (01:30) 3.89 (03:40) 0 0 0 0 0
27-01-2018 12.6 (15:40) 9.2 (00:00) 10.9 16.94 (03:10) 5.56 (14:40) 0 0 0 0 0
26-01-2018 11.6 (02:30) 7.7 (00:00) 9.7 20.83 (17:00) 8.33 (15:20) 1.2 0 1.2 0 0
25-01-2018 16.2 (15:20) 7.5 (00:00) 11.9 11.39 (14:50) 5.83 (13:00) 0 0 0 0 0
24-01-2018 17.3 (14:20) 5.7 (00:00) 11.5 7.78 (15:50) 3.61 (15:10) 0 0 0 0 0
23-01-2018 19.8 (14:40) 6.9 (00:00) 13.3 10.56 (22:10) 4.72 (22:00) 0 0 0 0 0
22-01-2018 15.9 (12:30) 7.5 (00:00) 11.7 7.5 (22:20) 3.33 (22:20) 0 0 0 0 0

Gráficas

Temp. máximas Temp. mínimas Temp. medias Precipitaciones Rachas de viento máximas Velocidades máximas media en intervalos de 10 minutos

Datos horarios

Fecha y hora oficial Temperatura (ºC) Velocidad del viento (km/h) Dirección del viento Racha (km/h) Dirección de racha Precipitación (mm) Presión (hPa) Tendencia (hPa) Humedad (%)
2018-02-20 23:00:00 11.5 24 Nordeste 67 Nordeste 0 -- -- 71
2018-02-20 22:00:00 12.1 22 Nordeste 51 Nordeste 0 -- -- 67
2018-02-20 21:00:00 12.7 23 Nordeste 55 Nordeste 0 -- -- 62
2018-02-20 20:00:00 13.4 24 Nordeste 53 Norte 0 -- -- 58
2018-02-20 19:00:00 14.3 17 Norte 58 Norte 0 -- -- 53
2018-02-20 18:00:00 14.5 21 Nordeste 49 Nordeste 0 -- -- 54
2018-02-20 17:00:00 14.8 19 Nordeste 52 Nordeste 0 -- -- 56
2018-02-20 16:00:00 14.6 14 Norte 51 Nordeste 0 -- -- 60
2018-02-20 15:00:00 14.4 18 Norte 44 Nordeste 0.2 -- -- 63
2018-02-20 14:00:00 12.8 10 Nordeste 23 Nordeste 0.2 -- -- 78
2018-02-20 13:00:00 11.8 5 Noroeste 12 Oeste 1 -- -- 91
2018-02-20 12:00:00 11.8 5 Noroeste 11 Norte 0.6 -- -- 90
2018-02-20 11:00:00 11.2 6 Noroeste 15 Noroeste 0.2 -- -- 90
2018-02-20 10:00:00 11 6 Norte 14 Noroeste 0 -- -- 88
2018-02-20 09:00:00 9.8 6 Norte 12 Norte 0.4 -- -- 92
2018-02-20 08:00:00 9.1 6 Noroeste 15 Noroeste 0.6 -- -- 95
2018-02-20 07:00:00 9.5 4 Oeste 11 Noroeste 0.8 -- -- 89
2018-02-20 06:00:00 9.3 4 Noroeste 9 Noroeste 0.2 -- -- 91
2018-02-20 05:00:00 9.7 4 Norte 22 Nordeste 0.4 -- -- 86
2018-02-20 04:00:00 10.2 9 Nordeste 23 Nordeste 0 -- -- 82
2018-02-20 03:00:00 10.3 5 Norte 25 Norte 0.2 -- -- 82
2018-02-20 02:00:00 10.5 13 Nordeste 28 Nordeste 0 -- -- 81
2018-02-20 01:00:00 11 5 Norte 14 Nordeste 0 -- -- 73
2018-02-20 00:00:00 11.5 6 Noroeste 22 Nordeste 0 -- -- 71
2018-02-19 23:00:00 11.9 8 Norte 23 Nordeste 0 -- -- 68
2018-02-19 22:00:00 12.1 6 Norte 17 Norte 0 -- -- 69
2018-02-19 21:00:00 12.2 8 Norte 31 Nordeste 0 -- -- 69
2018-02-19 20:00:00 10.5 0 Calma 7 Sudeste 0 -- -- 82
2018-02-19 19:00:00 10.7 4 Sur 13 Sur 0 -- -- 81
2018-02-19 18:00:00 11 6 Sudoeste 17 Sudoeste 0 -- -- 80
2018-02-19 17:00:00 12 7 Sur 17 Norte 0 -- -- 77
2018-02-19 16:00:00 13.7 3 Noroeste 9 Este 0 -- -- 64
2018-02-19 15:00:00 14 4 Este 10 Sudeste 0 -- -- 63
2018-02-19 14:00:00 13.9 3 Este 9 Oeste 0 -- -- 61
2018-02-19 13:00:00 12.1 4 Sudoeste 8 Sudoeste 0 -- -- 70
2018-02-19 12:00:00 11 4 Noroeste 10 Noroeste 0 -- -- 74
2018-02-19 11:00:00 10.3 3 Noroeste 9 Sudoeste 0 -- -- 75
2018-02-19 10:00:00 9.1 5 Noroeste 8 Noroeste 0 -- -- 82
2018-02-19 09:00:00 8.9 2 Este 10 Este 0 -- -- 77
2018-02-19 08:00:00 8.7 5 Este 10 Este 0 -- -- 81
2018-02-19 07:00:00 7.9 2 Sur 6 Oeste 0 -- -- 89
2018-02-19 06:00:00 7.7 0 Calma 6 Oeste 0 -- -- 89
2018-02-19 05:00:00 7.6 0 Calma 5 Oeste 0 -- -- 89
2018-02-19 04:00:00 7.8 4 Noroeste 7 Noroeste 0 -- -- 88
2018-02-19 03:00:00 8.6 0 Calma 8 Norte 0 -- -- 85
2018-02-19 02:00:00 10.1 5 Norte 12 Nordeste 0 -- -- 77
2018-02-19 01:00:00 9.9 0 Calma 6 Sudeste 0 -- -- 83
2018-02-19 00:00:00 9.9 2 Noroeste 8 Norte 0.2 -- -- 78
2018-02-18 23:00:00 9.8 6 Norte 16 Nordeste 0 -- -- 77
2018-02-18 22:00:00 9.9 6 Norte 29 Nordeste 0 -- -- 69
2018-02-18 21:00:00 10.4 12 Norte 27 Nordeste 0 -- -- 69
2018-02-18 20:00:00 10.7 14 Nordeste 31 Nordeste 0 -- -- 62
2018-02-18 19:00:00 11.5 13 Nordeste 30 Nordeste 0 -- -- 57
2018-02-18 18:00:00 12.2 15 Nordeste 36 Nordeste 0 -- -- 55
2018-02-18 17:00:00 13.8 20 Nordeste 41 Nordeste 0 -- -- 47
2018-02-18 16:00:00 14.7 17 Nordeste 39 Nordeste 0 -- -- 44
2018-02-18 15:00:00 15.1 16 Nordeste 37 Nordeste 0 -- -- 44
2018-02-18 14:00:00 15 18 Nordeste 40 Nordeste 0 -- -- 46
2018-02-18 13:00:00 14.5 16 Nordeste 40 Nordeste 0 -- -- 48
2018-02-18 12:00:00 13.4 13 Nordeste 35 Nordeste 0 -- -- 52
2018-02-18 11:00:00 12.4 15 Nordeste 33 Nordeste 0 -- -- 55
2018-02-18 10:00:00 10.5 7 Noroeste 26 Norte 0 -- -- 66
2018-02-18 09:00:00 9.4 11 Nordeste 24 Norte 0 -- -- 66
2018-02-18 08:00:00 5.2 4 Noroeste 15 Norte 0 -- -- 83
2018-02-18 07:00:00 8 8 Nordeste 25 Norte 0 -- -- 71
2018-02-18 06:00:00 8.6 10 Nordeste 36 Nordeste 0 -- -- 70
2018-02-18 05:00:00 8.7 17 Nordeste 32 Nordeste 0 -- -- 71
2018-02-18 04:00:00 9.4 14 Nordeste 39 Norte 0 -- -- 68
2018-02-18 03:00:00 9.9 13 Nordeste 39 Nordeste 0 -- -- 65
2018-02-18 02:00:00 10.5 16 Nordeste 33 Nordeste 0 -- -- 64
2018-02-18 01:00:00 10.6 12 Nordeste 29 Nordeste 0 -- -- 63
2018-02-18 00:00:00 11.2 10 Norte 27 Nordeste 0 -- -- 61
2018-02-17 23:00:00 10.1 4 Noroeste 12 Noroeste 0 -- -- 92
2018-02-17 22:00:00 11.5 4 Noroeste 21 Nordeste 0 -- -- 73
2018-02-17 21:00:00 10.7 5 Norte 32 Norte 0 -- -- 89
2018-02-17 20:00:00 11.5 14 Nordeste 32 Norte 0 -- -- 66
2018-02-17 19:00:00 10.7 9 Nordeste 23 Nordeste 0.8 -- -- 80
2018-02-17 18:00:00 10.6 2 Oeste 15 Norte 1 -- -- 87
2018-02-17 17:00:00 11.2 9 Nordeste 21 Norte 0.6 -- -- 83
2018-02-17 16:00:00 11.8 10 Nordeste 21 Nordeste 0.2 -- -- 75
2018-02-17 15:00:00 12.3 9 Nordeste 19 Nordeste 0 -- -- 72
2018-02-17 14:00:00 14 9 Nordeste 20 Nordeste 0 -- -- 61
2018-02-17 13:00:00 14.3 5 Este 19 Sudeste 0 -- -- 73
2018-02-17 12:00:00 14.8 10 Sudoeste 17 Sur 0 -- -- 81
2018-02-17 11:00:00 13 5 Sudoeste 10 Oeste 0 -- -- 92
2018-02-17 10:00:00 11.9 4 Sudoeste 7 Oeste 0 -- -- 93
2018-02-17 09:00:00 11 0 Calma 8 Este 0 -- -- 97
2018-02-17 08:00:00 10.9 3 Este 6 Nordeste 0 -- -- 98
2018-02-17 07:00:00 10.7 3 Este 8 Este 0 -- -- 98
2018-02-17 06:00:00 10.6 3 Nordeste 9 Norte 0 -- -- 98
2018-02-17 05:00:00 10.6 2 Nordeste 7 Nordeste 0 -- -- 99
2018-02-17 04:00:00 10.6 0 Calma 8 Este 0 -- -- 99
2018-02-17 03:00:00 11 3 Nordeste 10 Este 0 -- -- 97
2018-02-17 02:00:00 11.3 2 Sudeste 5 Sur 0 -- -- 97
2018-02-17 01:00:00 11.3 0 Calma 5 Nordeste 0 -- -- 97
2018-02-17 00:00:00 11.3 3 Sur 5 Sudoeste 0 -- -- 96
2018-02-16 23:00:00 11.5 3 Sur 6 Sudeste 0 -- -- 96
2018-02-16 22:00:00 11.5 0 Calma 7 Sudeste 0 -- -- 96
2018-02-16 21:00:00 11.6 4 Sudeste 8 Este 0 -- -- 96
2018-02-16 20:00:00 11.8 0 Calma 7 Sudoeste 0 -- -- 95
2018-02-16 19:00:00 12 5 Sudoeste 10 Sur 0 -- -- 93
2018-02-16 18:00:00 13 4 Sudoeste 9 Sur 0 -- -- 87
2018-02-16 17:00:00 14 5 Sur 15 Sudeste 0 -- -- 82
2018-02-16 16:00:00 16.3 5 Sur 12 Sur 0 -- -- 73
2018-02-16 15:00:00 16.1 4 Sur 8 Sur 0 -- -- 72
2018-02-16 14:00:00 14.4 0 Calma 8 Norte 0 -- -- 77
2018-02-16 13:00:00 13 4 Este 8 Este 0.2 -- -- 83
2018-02-16 12:00:00 12.6 0 Calma 6 Este 0 -- -- 83
2018-02-16 11:00:00 10.9 3 Noroeste 7 Oeste 0.4 -- -- 89
2018-02-16 10:00:00 9.6 0 Calma 4 Oeste 0 -- -- 89
2018-02-16 09:00:00 8.7 2 Oeste 6 Noroeste 0 -- -- 90
2018-02-16 08:00:00 8.5 0 Calma 4 Nordeste 0 -- -- 90
2018-02-16 07:00:00 8 0 Calma 5 Sudoeste 0 -- -- 92
2018-02-16 06:00:00 7.7 0 Calma 4 Sur 0 -- -- 92
2018-02-16 05:00:00 7.4 4 Norte 8 Norte 0 -- -- 93
2018-02-16 04:00:00 7.7 4 Sudoeste 6 Sudoeste 0 -- -- 90
2018-02-16 03:00:00 8.4 0 Calma 5 Noroeste 0 -- -- 90
2018-02-16 02:00:00 8.8 4 Norte 6 Noroeste 0 -- -- 91
2018-02-16 01:00:00 9 3 Noroeste 6 Noroeste 0 -- -- 90
2018-02-16 00:00:00 9.3 3 Noroeste 8 Noroeste 0 -- -- 87
2018-02-15 23:00:00 10.6 3 Noroeste 6 Noroeste 0 -- -- 85
2018-02-15 22:00:00 11.2 0 Calma 4 Sudoeste 0 -- -- 83
2018-02-15 21:00:00 12.2 0 Calma 6 Noroeste 0 -- -- 80
2018-02-15 20:00:00 13.5 3 Norte 8 Noroeste 0 -- -- 75
2018-02-15 19:00:00 14.7 0 Calma 6 Este 0 -- -- 72
2018-02-15 18:00:00 15.8 3 Sudeste 10 Sudeste 0 -- -- 68
2018-02-15 17:00:00 17 6 Sudeste 13 Sudeste 0 -- -- 62
2018-02-15 16:00:00 17.7 7 Sudeste 14 Sur 0 -- -- 63
2018-02-15 15:00:00 17.8 8 Sudeste 15 Sudeste 0 -- -- 62
2018-02-15 14:00:00 18 6 Sudeste 12 Sudeste 0 -- -- 58
2018-02-15 13:00:00 16.4 5 Sur 11 Sudoeste 0 -- -- 59
2018-02-15 12:00:00 14.3 4 Sur 8 Sur 0 -- -- 67
2018-02-15 11:00:00 11.9 2 Este 8 Sur 0 -- -- 73
2018-02-15 10:00:00 11 2 Sudeste 5 Sur 0 -- -- 81
2018-02-15 09:00:00 8.4 3 Noroeste 8 Noroeste 0 -- -- 88
2018-02-15 08:00:00 7.5 3 Oeste 6 Noroeste 0 -- -- 92
2018-02-15 07:00:00 7.2 0 Calma 7 Noroeste 0 -- -- 91
2018-02-15 06:00:00 8.3 3 Norte 7 Nordeste 0 -- -- 91
2018-02-15 05:00:00 8.1 0 Calma 6 Sur 0 -- -- 92
2018-02-15 04:00:00 8.2 3 Oeste 6 Sur 0 -- -- 91
2018-02-15 03:00:00 7.9 4 Noroeste 8 Noroeste 0 -- -- 92
2018-02-15 02:00:00 8.1 3 Noroeste 8 Noroeste 0 -- -- 90
2018-02-15 01:00:00 8.2 2 Norte 8 Norte 0 -- -- 90
2018-02-15 00:00:00 8.8 3 Nordeste 6 Este 0.2 -- -- 86
2018-02-14 23:00:00 9 2 Norte 10 Nordeste 0 -- -- 84
2018-02-14 22:00:00 9.4 2 Sur 6 Sudoeste 0 -- -- 77
2018-02-14 21:00:00 9.8 0 Calma 8 Oeste 0 -- -- 72
2018-02-14 20:00:00 10.2 4 Oeste 10 Sudoeste 0 -- -- 70
2018-02-14 19:00:00 10.7 5 Oeste 12 Oeste 0 -- -- 67
2018-02-14 18:00:00 11.8 7 Sudoeste 14 Sudoeste 0 -- -- 62
2018-02-14 17:00:00 12.3 5 Sur 14 Sur 0 -- -- 59
2018-02-14 16:00:00 12.8 7 Sudoeste 17 Sudoeste 0 -- -- 54
2018-02-14 15:00:00 13.1 5 Oeste 20 Sur 0 -- -- 52
2018-02-14 14:00:00 12.8 6 Sudoeste 14 Oeste 0 -- -- 52
2018-02-14 13:00:00 11.7 6 Sudoeste 13 Oeste 0 -- -- 52
2018-02-14 12:00:00 10.6 3 Noroeste 6 Oeste 0 -- -- 58
2018-02-14 11:00:00 9.2 3 Noroeste 19 Norte 0 -- -- 62
2018-02-14 10:00:00 7.9 10 Nordeste 24 Nordeste 0 -- -- 64
2018-02-14 09:00:00 7.3 8 Norte 25 Nordeste 0 -- -- 67
2018-02-14 08:00:00 6.9 9 Nordeste 26 Norte 0 -- -- 70
2018-02-14 07:00:00 7 13 Nordeste 25 Nordeste 0 -- -- 68
2018-02-14 06:00:00 6.8 5 Norte 16 Nordeste 0 -- -- 64
2018-02-14 05:00:00 6.5 7 Norte 24 Nordeste 0 -- -- 65
2018-02-14 04:00:00 6.8 9 Nordeste 22 Nordeste 0 -- -- 61
2018-02-14 03:00:00 4.2 5 Noroeste 13 Noroeste 0 -- -- 70
2018-02-14 02:00:00 4.7 5 Noroeste 10 Noroeste 0 -- -- 68
2018-02-14 01:00:00 5.1 4 Norte 14 Noroeste 0 -- -- 66
2018-02-14 00:00:00 7.3 6 Nordeste 25 Nordeste 0 -- -- 66
2018-02-13 23:00:00 6 0 Calma 8 Noroeste 0 -- -- 58
2018-02-13 22:00:00 6.9 3 Noroeste 8 Noroeste 0 -- -- 58
2018-02-13 21:00:00 8 5 Noroeste 16 Norte 0 -- -- 55
2018-02-13 20:00:00 8.4 7 Nordeste 19 Este 0 -- -- 52
2018-02-13 19:00:00 8.4 5 Nordeste 14 Norte 0 -- -- 41
2018-02-13 18:00:00 9.5 5 Nordeste 10 Este 0 -- -- 39
2018-02-13 17:00:00 11.4 2 Noroeste 10 Sudoeste 0 -- -- 33
2018-02-13 16:00:00 10.5 4 Sudoeste 13 Oeste 0 -- -- 35
2018-02-13 15:00:00 9.6 4 Noroeste 17 Oeste 0 -- -- 38
2018-02-13 14:00:00 9.5 8 Sudoeste 18 Sudoeste 0 -- -- 38
2018-02-13 13:00:00 9 11 Sudoeste 22 Sudoeste 0 -- -- 35
2018-02-13 12:00:00 8.2 6 Sudoeste 14 Sudoeste 0 -- -- 44
2018-02-13 11:00:00 6.6 3 Sudoeste 8 Oeste 0 -- -- 44
2018-02-13 10:00:00 3.5 0 Calma 4 Sudoeste 0 -- -- 50
2018-02-13 09:00:00 -0.3 4 Noroeste 10 Noroeste 0 -- -- 60
2018-02-13 08:00:00 -2.1 8 Noroeste 12 Norte 0 -- -- 65
2018-02-13 07:00:00 -1.3 6 Noroeste 12 Noroeste 0 -- -- 63
2018-02-13 06:00:00 -0.7 7 Noroeste 16 Noroeste 0 -- -- 59
2018-02-13 05:00:00 0 8 Noroeste 14 Noroeste 0 -- -- 61
2018-02-13 04:00:00 1.2 6 Sudoeste 14 Norte 0 -- -- 59
2018-02-13 03:00:00 4.5 8 Noroeste 34 Nordeste 0 -- -- 45
2018-02-13 02:00:00 5.5 13 Norte 34 Norte 0 -- -- 48
2018-02-13 01:00:00 6 15 Nordeste 33 Nordeste 0 -- -- 47
2018-02-13 00:00:00 6.2 9 Norte 31 Norte 0 -- -- 46
2018-02-12 23:00:00 6.4 12 Norte 42 Nordeste 0 -- -- 47
2018-02-12 22:00:00 6.8 18 Nordeste 52 Nordeste 0 -- -- 46
2018-02-12 21:00:00 7.2 18 Nordeste 46 Norte 0 -- -- 45
2018-02-12 20:00:00 7.4 22 Nordeste 45 Nordeste 0 -- -- 45
2018-02-12 19:00:00 7.8 14 Nordeste 45 Norte 0 -- -- 43
2018-02-12 18:00:00 8.4 19 Nordeste 47 Nordeste 0 -- -- 41
2018-02-12 17:00:00 9.2 17 Nordeste 55 Nordeste 0 -- -- 41
2018-02-12 16:00:00 9.2 23 Nordeste 55 Nordeste 0 -- -- 39
2018-02-12 15:00:00 9.4 23 Nordeste 65 Norte 0 -- -- 41
2018-02-12 14:00:00 9.6 32 Nordeste 61 Norte 0 -- -- 42
2018-02-12 13:00:00 9.5 22 Nordeste 61 Nordeste 0 -- -- 48
2018-02-12 12:00:00 9.4 20 Nordeste 40 Nordeste 0 -- -- 49
2018-02-12 11:00:00 8.7 16 Nordeste 50 Norte 0 -- -- 56
2018-02-12 10:00:00 8 20 Nordeste 54 Nordeste 0 -- -- 58
2018-02-12 09:00:00 7.8 23 Nordeste 56 Nordeste 0 -- -- 59
2018-02-12 08:00:00 7.9 22 Nordeste 62 Nordeste 0 -- -- 56
2018-02-12 07:00:00 8.5 24 Nordeste 58 Nordeste 0 -- -- 65
2018-02-12 06:00:00 9.8 21 Nordeste 45 Nordeste 0 -- -- 62
2018-02-12 05:00:00 9.8 14 Nordeste 36 Nordeste 0 -- -- 64
2018-02-12 04:00:00 9.7 17 Nordeste 36 Nordeste 0 -- -- 68
2018-02-12 03:00:00 9.5 17 Nordeste 39 Norte 0 -- -- 68
2018-02-12 02:00:00 9.6 20 Nordeste 42 Nordeste 0 -- -- 69
2018-02-12 01:00:00 10 19 Nordeste 37 Nordeste 0 -- -- 70
2018-02-12 00:00:00 10.6 17 Nordeste 36 Nordeste 0 -- -- 71
2018-02-11 23:00:00 11.2 14 Nordeste 31 Nordeste 0 -- -- 73
2018-02-11 22:00:00 10.3 3 Sudeste 12 Nordeste 0 -- -- 79
2018-02-11 21:00:00 9.4 3 Norte 7 Noroeste 0 -- -- 81
2018-02-11 20:00:00 9.7 5 Noroeste 21 Nordeste 0 -- -- 75
2018-02-11 19:00:00 9.7 6 Nordeste 15 Nordeste 0 -- -- 68
2018-02-11 18:00:00 9.4 3 Nordeste 11 Este 0 -- -- 61
2018-02-11 17:00:00 9.7 5 Este 10 Este 0 -- -- 59
2018-02-11 16:00:00 10.2 3 Sudeste 9 Sudoeste 0 -- -- 58
2018-02-11 15:00:00 10.1 5 Sudoeste 9 Oeste 0 -- -- 58
2018-02-11 14:00:00 9.5 2 Este 11 Nordeste 0.2 -- -- 56
2018-02-11 13:00:00 9 0 Calma 5 Sudoeste 0 -- -- 51
2018-02-11 12:00:00 8.2 2 Oeste 10 Sudoeste 0 -- -- 56
2018-02-11 11:00:00 5.9 3 Noroeste 9 Noroeste 0 -- -- 75
2018-02-11 10:00:00 4.4 3 Noroeste 6 Oeste 0.2 -- -- 76
2018-02-11 09:00:00 3.5 4 Noroeste 8 Noroeste 0 -- -- 67
2018-02-11 08:00:00 2.4 4 Norte 9 Noroeste 0 -- -- 63
2018-02-11 07:00:00 2.2 2 Noroeste 5 Oeste 0 -- -- 57
2018-02-11 06:00:00 2.5 0 Calma 10 Noroeste 0 -- -- 53
2018-02-11 05:00:00 2.4 3 Noroeste 13 Noroeste 0 -- -- 50
2018-02-11 04:00:00 1.8 4 Noroeste 13 Noroeste 0 -- -- 54
2018-02-11 03:00:00 2.1 6 Noroeste 12 Noroeste 0 -- -- 51
2018-02-11 02:00:00 2.8 4 Noroeste 14 Oeste 0 -- -- 44
2018-02-11 01:00:00 5.9 7 Norte 32 Nordeste 0 -- -- 43
2018-02-11 00:00:00 6.6 12 Norte 31 Nordeste 0 -- -- 39
2018-02-10 23:00:00 7 12 Norte 35 Nordeste 0 -- -- 32
2018-02-10 22:00:00 7.8 19 Nordeste 44 Nordeste 0 -- -- 26
2018-02-10 21:00:00 7.5 16 Nordeste 39 Nordeste 0 -- -- 32
2018-02-10 20:00:00 7.4 14 Nordeste 48 Nordeste 0 -- -- 34
2018-02-10 19:00:00 7.6 19 Nordeste 50 Este 0 -- -- 36
2018-02-10 18:00:00 8.3 21 Nordeste 47 Nordeste 0 -- -- 31
2018-02-10 17:00:00 9.2 19 Nordeste 56 Nordeste 0 -- -- 31
2018-02-10 16:00:00 9.8 23 Nordeste 54 Norte 0 -- -- 28
2018-02-10 15:00:00 9.7 24 Nordeste 72 Nordeste 0 -- -- 31
2018-02-10 14:00:00 9.5 25 Nordeste 73 Nordeste 0 -- -- 31
2018-02-10 13:00:00 9.2 22 Nordeste 57 Nordeste 0 -- -- 35
2018-02-10 12:00:00 7.6 29 Nordeste 66 Norte 0 -- -- 39
2018-02-10 11:00:00 7.1 28 Nordeste 64 Nordeste 0 -- -- 42
2018-02-10 10:00:00 6.4 24 Nordeste 55 Nordeste 0 -- -- 48
2018-02-10 09:00:00 5.6 24 Nordeste 48 Nordeste 0 -- -- 49
2018-02-10 08:00:00 4.8 21 Nordeste 54 Norte 0 -- -- 56
2018-02-10 07:00:00 4.9 17 Nordeste 45 Nordeste 0 -- -- 54
2018-02-10 06:00:00 5.2 15 Nordeste 37 Nordeste 0 -- -- 54
2018-02-10 05:00:00 5.3 17 Nordeste 40 Nordeste 0 -- -- 56
2018-02-10 04:00:00 5.4 17 Nordeste 45 Nordeste 0 -- -- 58
2018-02-10 03:00:00 5.8 20 Nordeste 61 Norte 0 -- -- 53
2018-02-10 02:00:00 6.1 24 Nordeste 55 Nordeste 0 -- -- 52
2018-02-10 01:00:00 7.1 23 Nordeste 48 Nordeste 0 -- -- 47
2018-02-10 00:00:00 5.4 7 Norte 22 Norte 0 -- -- 68
2018-02-09 23:00:00 6 3 Norte 12 Nordeste 0 -- -- 70
2018-02-09 22:00:00 6.3 3 Nordeste 7 Nordeste 0 -- -- 68
2018-02-09 21:00:00 6.6 2 Nordeste 14 Nordeste 0 -- -- 69
2018-02-09 20:00:00 7 4 Este 8 Este 0 -- -- 67
2018-02-09 19:00:00 7 0 Calma 8 Sudoeste 0 -- -- 67
2018-02-09 18:00:00 7.4 4 Sur 11 Sur 0 -- -- 64
2018-02-09 17:00:00 8 6 Sur 15 Sur 0 -- -- 60
2018-02-09 16:00:00 9.1 9 Sur 15 Sur 0 -- -- 51
2018-02-09 15:00:00 10.2 5 Sur 13 Sur 0 -- -- 45
2018-02-09 14:00:00 9.9 5 Sudoeste 12 Sudoeste 0 -- -- 42
2018-02-09 13:00:00 8.7 4 Sur 12 Sudoeste 0 -- -- 46
2018-02-09 12:00:00 7.2 4 Sur 9 Sudoeste 0 -- -- 47
2018-02-09 11:00:00 6.1 2 Sudeste 6 Sudeste 0 -- -- 52
2018-02-09 10:00:00 4.2 3 Este 11 Nordeste 0 -- -- 59
2018-02-09 09:00:00 1 2 Sudeste 8 Noroeste 0 -- -- 71
2018-02-09 08:00:00 -0.4 0 Calma 4 Noroeste 0 -- -- 75
2018-02-09 07:00:00 0.9 4 Sudoeste 19 Nordeste 0 -- -- 69
2018-02-09 06:00:00 1.8 9 Nordeste 27 Nordeste 0 -- -- 65
2018-02-09 05:00:00 2 11 Norte 26 Norte 0 -- -- 66
2018-02-09 04:00:00 1.7 10 Nordeste 24 Norte 0 -- -- 69
2018-02-09 03:00:00 1.7 10 Nordeste 21 Norte 0 -- -- 68
2018-02-09 02:00:00 2 9 Nordeste 28 Nordeste 0 -- -- 66
2018-02-09 01:00:00 2.2 12 Nordeste 25 Nordeste 0 -- -- 65
2018-02-09 00:00:00 2.3 8 Nordeste 22 Nordeste 0 -- -- 64
2018-02-08 23:00:00 2.5 12 Nordeste 26 Nordeste 0 -- -- 64
2018-02-08 22:00:00 3.3 9 Norte 25 Nordeste 0 -- -- 59
2018-02-08 21:00:00 3 11 Nordeste 30 Nordeste 0 -- -- 63
2018-02-08 20:00:00 3.4 12 Nordeste 31 Nordeste 0 -- -- 61
2018-02-08 19:00:00 4.2 16 Nordeste 36 Nordeste 0 -- -- 56
2018-02-08 18:00:00 5.7 8 Norte 26 Nordeste 0 -- -- 50
2018-02-08 17:00:00 6.7 10 Nordeste 28 Nordeste 0 -- -- 47
2018-02-08 16:00:00 7.4 16 Nordeste 35 Nordeste 0 -- -- 44
2018-02-08 15:00:00 7.2 18 Nordeste 37 Nordeste 0 -- -- 44
2018-02-08 14:00:00 6.6 18 Nordeste 38 Nordeste 0 -- -- 45
2018-02-08 13:00:00 5.6 15 Nordeste 34 Nordeste 0 -- -- 48
2018-02-08 12:00:00 4.4 19 Nordeste 48 Nordeste 0 -- -- 54
2018-02-08 11:00:00 3.9 21 Nordeste 40 Nordeste 0 -- -- 51
2018-02-08 10:00:00 3.5 17 Nordeste 44 Nordeste 0 -- -- 53
2018-02-08 09:00:00 2.8 14 Nordeste 41 Norte 0 -- -- 56
2018-02-08 08:00:00 2.6 15 Nordeste 36 Nordeste 0 -- -- 60
2018-02-08 07:00:00 3 17 Nordeste 32 Nordeste 0 -- -- 65
2018-02-08 06:00:00 2.7 12 Nordeste 27 Norte 0 -- -- 62
2018-02-08 05:00:00 3 12 Nordeste 31 Nordeste 0 -- -- 60
2018-02-08 04:00:00 3.8 14 Nordeste 32 Nordeste 0 -- -- 57
2018-02-08 03:00:00 4.3 12 Nordeste 32 Nordeste 0 -- -- 52
2018-02-08 02:00:00 4.6 14 Nordeste 36 Nordeste 0 -- -- 52
2018-02-08 01:00:00 4.7 17 Nordeste 39 Nordeste 0 -- -- 52
2018-02-08 00:00:00 4.7 15 Nordeste 36 Nordeste 0 -- -- 54
2018-02-07 23:00:00 4.9 17 Nordeste 40 Nordeste 0 -- -- 55
2018-02-07 22:00:00 5.2 18 Nordeste 38 Norte 0 -- -- 54
2018-02-07 21:00:00 5.1 21 Nordeste 48 Nordeste 0 -- -- 56
2018-02-07 20:00:00 5.1 21 Nordeste 50 Nordeste 0 -- -- 56
2018-02-07 19:00:00 5.7 20 Nordeste 50 Nordeste 0 -- -- 53
2018-02-07 18:00:00 6.7 18 Nordeste 37 Nordeste 0 -- -- 45
2018-02-07 17:00:00 7.2 12 Nordeste 39 Nordeste 0 -- -- 44
2018-02-07 16:00:00 7.8 18 Nordeste 45 Nordeste 0 -- -- 40
2018-02-07 15:00:00 8.1 19 Nordeste 40 Nordeste 0 -- -- 40
2018-02-07 14:00:00 7.9 13 Nordeste 46 Norte 0 -- -- 40
2018-02-07 13:00:00 8.3 21 Nordeste 46 Nordeste 0 -- -- 38
2018-02-07 12:00:00 8.9 17 Nordeste 39 Nordeste 0 -- -- 38
2018-02-07 11:00:00 5.9 5 Oeste 23 Norte 0 -- -- 63
2018-02-07 10:00:00 5.7 7 Norte 18 Nordeste 0 -- -- 45
2018-02-07 09:00:00 4.5 4 Noroeste 15 Nordeste 0 -- -- 67
2018-02-07 08:00:00 5.4 7 Norte 34 Norte 0 -- -- 49
2018-02-07 07:00:00 5.3 17 Nordeste 42 Norte 0 -- -- 52
2018-02-07 06:00:00 5.6 18 Nordeste 48 Norte 0 -- -- 49
2018-02-07 05:00:00 5.5 19 Nordeste 43 Nordeste 0 -- -- 48
2018-02-07 04:00:00 5.6 21 Nordeste 54 Norte 0 -- -- 48
2018-02-07 03:00:00 5.4 27 Nordeste 54 Nordeste 0 -- -- 53
2018-02-07 02:00:00 5.8 27 Nordeste 53 Nordeste 0 -- -- 50
2018-02-07 01:00:00 6.3 26 Nordeste 57 Nordeste 0 -- -- 49
2018-02-07 00:00:00 6.6 26 Nordeste 58 Nordeste 0 -- -- 45
2018-02-06 23:00:00 6.6 24 Nordeste 62 Nordeste 0 -- -- 43
2018-02-06 22:00:00 7 23 Nordeste 57 Norte 0 -- -- 40
2018-02-06 21:00:00 6.7 24 Nordeste 58 Nordeste 0 -- -- 41
2018-02-06 20:00:00 5.9 27 Nordeste 68 Norte 0 -- -- 49
2018-02-06 19:00:00 6.1 22 Nordeste 54 Nordeste 0 -- -- 47
2018-02-06 18:00:00 6.8 21 Nordeste 59 Nordeste 0 -- -- 42
2018-02-06 17:00:00 7.3 26 Nordeste 60 Nordeste 0 -- -- 40
2018-02-06 16:00:00 8.1 21 Nordeste 44 Nordeste 0 -- -- 46
2018-02-06 15:00:00 8.9 16 Nordeste 39 Nordeste 0 -- -- 48
2018-02-06 14:00:00 8.2 21 Nordeste 45 Nordeste 0 -- -- 52
2018-02-06 13:00:00 8.8 19 Nordeste 42 Nordeste 0 -- -- 52
2018-02-06 12:00:00 9.3 19 Nordeste 45 Norte 0 -- -- 55
2018-02-06 11:00:00 8 11 Nordeste 34 Norte 0 -- -- 62
2018-02-06 10:00:00 7.4 17 Nordeste 35 Nordeste 0 -- -- 66
2018-02-06 09:00:00 7.4 14 Nordeste 34 Norte 0 -- -- 65
2018-02-06 08:00:00 7.2 11 Nordeste 28 Norte 0 -- -- 68
2018-02-06 07:00:00 7 10 Nordeste 30 Norte 0 -- -- 74
2018-02-06 06:00:00 6.5 15 Nordeste 32 Nordeste 0.2 -- -- 80
2018-02-06 05:00:00 6.4 15 Nordeste 31 Nordeste 0 -- -- 85
2018-02-06 04:00:00 6.9 14 Norte 30 Nordeste 0 -- -- 83
2018-02-06 03:00:00 7.1 10 Nordeste 27 Nordeste 0 -- -- 87
2018-02-06 02:00:00 7.1 14 Nordeste 27 Norte 0.6 -- -- 90
2018-02-06 01:00:00 8 7 Nordeste 17 Nordeste 0.2 -- -- 91
2018-02-06 00:00:00 7.8 2 Norte 17 Oeste 1.2 -- -- 91
2018-02-05 23:00:00 7.6 8 Noroeste 27 Oeste 2 -- -- 94
2018-02-05 22:00:00 9.1 10 Oeste 25 Oeste 0.6 -- -- 87
2018-02-05 21:00:00 9.5 6 Nordeste 15 Nordeste 0 -- -- 87
2018-02-05 20:00:00 9.3 2 Oeste 6 Norte 0 -- -- 90
2018-02-05 19:00:00 9.6 6 Noroeste 11 Noroeste 0 -- -- 88
2018-02-05 18:00:00 10.2 3 Nordeste 7 Nordeste 0 -- -- 86
2018-02-05 17:00:00 10.5 3 Este 9 Este 0 -- -- 84
2018-02-05 16:00:00 11 2 Noroeste 8 Noroeste 0 -- -- 81
2018-02-05 15:00:00 10.1 3 Oeste 8 Oeste 0.2 -- -- 81
2018-02-05 14:00:00 8.8 8 Noroeste 15 Sudoeste 0.4 -- -- 93
2018-02-05 13:00:00 9.5 4 Noroeste 12 Norte 0 -- -- 91
2018-02-05 12:00:00 9.3 4 Este 9 Nordeste 0 -- -- 86
2018-02-05 11:00:00 8 3 Nordeste 14 Norte 0.6 -- -- 96
2018-02-05 10:00:00 6.6 5 Nordeste 14 Norte 2.4 -- -- 97
2018-02-05 09:00:00 6.3 4 Sudoeste 12 Noroeste 1.8 -- -- 97
2018-02-05 08:00:00 5.9 5 Noroeste 11 Noroeste 3.8 -- -- 96
2018-02-05 07:00:00 6 3 Noroeste 10 Norte 0.4 -- -- 92
2018-02-05 06:00:00 6 4 Noroeste 12 Norte 0 -- -- 90
2018-02-05 05:00:00 6.1 8 Nordeste 32 Nordeste 0 -- -- 83
2018-02-05 04:00:00 5.4 9 Norte 28 Norte 0 -- -- 87
2018-02-05 03:00:00 5 10 Nordeste 32 Nordeste 0.2 -- -- 89
2018-02-05 02:00:00 5.3 11 Norte 25 Norte 5.4 -- -- 90
2018-02-05 01:00:00 5.1 11 Norte 26 Norte 4.8 -- -- 92
2018-02-05 00:00:00 5.7 8 Norte 19 Nordeste 3 -- -- 90
2018-02-04 23:00:00 6.4 11 Nordeste 23 Nordeste 0 -- -- 86
2018-02-04 22:00:00 6.7 9 Nordeste 19 Norte 0 -- -- 86
2018-02-04 21:00:00 6.5 6 Norte 18 Nordeste 0.2 -- -- 90
2018-02-04 20:00:00 7 7 Nordeste 17 Nordeste 0.4 -- -- 90
2018-02-04 19:00:00 7.3 4 Norte 9 Nordeste 0.8 -- -- 91
2018-02-04 18:00:00 7.8 0 Calma 6 Norte 0.8 -- -- 90
2018-02-04 17:00:00 8.3 2 Norte 7 Este 0.6 -- -- 88
2018-02-04 16:00:00 8.9 4 Este 9 Este 1 -- -- 79
2018-02-04 15:00:00 9.4 6 Sudeste 15 Sudeste 0 -- -- 75
2018-02-04 14:00:00 9.8 5 Sudeste 18 Sudeste 0 -- -- 72
2018-02-04 13:00:00 9.8 2 Sur 6 Sur 0 -- -- 66
2018-02-04 12:00:00 9.1 2 Sur 5 Sudoeste 0 -- -- 66
2018-02-04 11:00:00 7 0 Calma 7 Noroeste 0 -- -- 73
2018-02-04 10:00:00 4.1 4 Noroeste 10 Oeste 0 -- -- 83
2018-02-04 09:00:00 3.8 3 Oeste 6 Oeste 0 -- -- 80
2018-02-04 08:00:00 2.6 4 Norte 6 Norte 0 -- -- 85
2018-02-04 07:00:00 2.7 0 Calma 6 Noroeste 0 -- -- 84
2018-02-04 06:00:00 2.8 3 Noroeste 5 Noroeste 0 -- -- 83
2018-02-04 05:00:00 3.1 2 Norte 12 Noroeste 0 -- -- 81
2018-02-04 04:00:00 2.6 5 Noroeste 14 Oeste 0 -- -- 80
2018-02-04 03:00:00 2.7 6 Noroeste 12 Noroeste 0 -- -- 81
2018-02-04 02:00:00 2.9 2 Noroeste 7 Oeste 0 -- -- 78
2018-02-04 01:00:00 3.7 5 Noroeste 9 Noroeste 0 -- -- 76
2018-02-04 00:00:00 4.6 5 Noroeste 9 Noroeste 0 -- -- 74
2018-02-03 23:00:00 7 4 Nordeste 11 Norte 0 -- -- 65
2018-02-03 22:00:00 7.8 2 Nordeste 5 Norte 0 -- -- 64
2018-02-03 21:00:00 8.6 0 Calma 6 Noroeste 0 -- -- 60
2018-02-03 20:00:00 8.5 5 Noroeste 8 Noroeste 0 -- -- 61
2018-02-03 19:00:00 9.3 4 Oeste 12 Sudoeste 0 -- -- 58
2018-02-03 18:00:00 10.3 3 Oeste 15 Norte 0 -- -- 48
2018-02-03 17:00:00 10.5 8 Nordeste 19 Nordeste 0 -- -- 48
2018-02-03 16:00:00 11.1 11 Nordeste 28 Nordeste 0 -- -- 45
2018-02-03 15:00:00 12.5 13 Nordeste 27 Noroeste 0 -- -- 39
2018-02-03 14:00:00 13.6 6 Sudoeste 21 Sudoeste 0 -- -- 30
2018-02-03 13:00:00 12.4 13 Sudoeste 31 Sudoeste 0 -- -- 30
2018-02-03 12:00:00 11.3 9 Oeste 28 Oeste 0 -- -- 34
2018-02-03 11:00:00 8.3 6 Noroeste 21 Noroeste 0 -- -- 44
2018-02-03 10:00:00 7.2 8 Noroeste 31 Nordeste 0 -- -- 46
2018-02-03 09:00:00 7.8 12 Nordeste 30 Nordeste 0 -- -- 45
2018-02-03 08:00:00 7 13 Nordeste 35 Nordeste 0 -- -- 44
2018-02-03 07:00:00 6.3 9 Norte 32 Norte 0 -- -- 46
2018-02-03 06:00:00 6.5 10 Norte 28 Nordeste 0 -- -- 45
2018-02-03 05:00:00 7.1 15 Nordeste 41 Norte 0 -- -- 40
2018-02-03 04:00:00 7.6 15 Nordeste 59 Nordeste 0 -- -- 38
2018-02-03 03:00:00 7.2 19 Norte 49 Nordeste 0 -- -- 45
2018-02-03 02:00:00 7.5 12 Norte 39 Nordeste 0 -- -- 42
2018-02-03 01:00:00 7.8 12 Norte 43 Norte 0 -- -- 39
2018-02-03 00:00:00 7.8 13 Nordeste 49 Nordeste 0 -- -- 41
2018-02-02 23:00:00 7.7 18 Nordeste 56 Nordeste 0 -- -- 41
2018-02-02 22:00:00 7.1 16 Norte 49 Norte 0 -- -- 45
2018-02-02 21:00:00 7.7 14 Norte 50 Nordeste 0 -- -- 38
2018-02-02 20:00:00 7.7 15 Norte 48 Norte 0 -- -- 40
2018-02-02 19:00:00 7.9 19 Nordeste 46 Nordeste 0 -- -- 38
2018-02-02 18:00:00 8.3 24 Nordeste 58 Nordeste 0 -- -- 40
2018-02-02 17:00:00 9 24 Nordeste 59 Nordeste 0 -- -- 39
2018-02-02 16:00:00 9.3 21 Nordeste 49 Nordeste 0 -- -- 39
2018-02-02 15:00:00 9.2 25 Nordeste 61 Nordeste 0 -- -- 41
2018-02-02 14:00:00 9.4 17 Nordeste 61 Nordeste 0 -- -- 50
2018-02-02 13:00:00 9.1 17 Nordeste 66 Nordeste 0 -- -- 47
2018-02-02 12:00:00 9.1 17 Nordeste 45 Nordeste 0 -- -- 48
2018-02-02 11:00:00 8.1 18 Nordeste 38 Nordeste 0 -- -- 55
2018-02-02 10:00:00 7.6 15 Nordeste 48 Nordeste 0 -- -- 57
2018-02-02 09:00:00 7 12 Nordeste 41 Nordeste 0 -- -- 62
2018-02-02 08:00:00 6.9 18 Nordeste 37 Nordeste 0 -- -- 62
2018-02-02 07:00:00 6.8 15 Nordeste 56 Nordeste 0 -- -- 65
2018-02-02 06:00:00 6.8 17 Nordeste 47 Norte 0 -- -- 68
2018-02-02 05:00:00 6.8 16 Nordeste 39 Nordeste 0 -- -- 69
2018-02-02 04:00:00 7.1 13 Nordeste 38 Norte 0 -- -- 67
2018-02-02 03:00:00 7.4 14 Nordeste 31 Nordeste 0 -- -- 65
2018-02-02 02:00:00 7.3 9 Nordeste 28 Nordeste 0 -- -- 68
2018-02-02 01:00:00 7.5 9 Nordeste 34 Nordeste 0 -- -- 68
2018-02-02 00:00:00 7.9 11 Nordeste 35 Nordeste 0 -- -- 68
2018-02-01 23:00:00 8.1 13 Nordeste 33 Nordeste 0 -- -- 66
2018-02-01 22:00:00 8.1 7 Norte 22 Nordeste 0 -- -- 63
2018-02-01 21:00:00 7.8 4 Norte 14 Norte 0 -- -- 67
2018-02-01 20:00:00 7.7 5 Norte 15 Norte 0 -- -- 71
2018-02-01 19:00:00 7.6 5 Norte 16 Norte 0 -- -- 73
2018-02-01 18:00:00 7.6 5 Norte 14 Nordeste 0 -- -- 75
2018-02-01 17:00:00 7.4 2 Norte 7 Norte 0.2 -- -- 82
2018-02-01 16:00:00 7.5 4 Norte 19 Este 1.4 -- -- 85
2018-02-01 15:00:00 7.6 9 Nordeste 31 Nordeste 1.2 -- -- 84
2018-02-01 14:00:00 7.8 8 Nordeste 17 Nordeste 2.4 -- -- 87
2018-02-01 13:00:00 9 8 Nordeste 18 Norte 0.8 -- -- 81
2018-02-01 12:00:00 9.1 6 Nordeste 17 Nordeste 0.2 -- -- 83
2018-02-01 11:00:00 8.5 3 Noroeste 9 Norte 0 -- -- 90
2018-02-01 10:00:00 7.3 3 Norte 8 Norte 0 -- -- 94
2018-02-01 09:00:00 6.5 2 Sudoeste 9 Noroeste 0 -- -- 93
2018-02-01 08:00:00 6.7 5 Noroeste 8 Noroeste 0 -- -- 95
2018-02-01 07:00:00 -- 4 Noroeste 8 Noroeste 0 -- -- --
2018-02-01 06:00:00 6.9 3 Nordeste 11 Nordeste 0 -- -- 95
2018-02-01 05:00:00 5.2 3 Nordeste 10 Nordeste 0 -- -- 96
2018-02-01 04:00:00 4.3 0 Calma 5 Noroeste 0 -- -- 94
2018-02-01 03:00:00 4.7 0 Calma 5 Nordeste 0 -- -- 95
2018-02-01 02:00:00 5.1 0 Calma 9 Noroeste 0 -- -- 94
2018-02-01 01:00:00 6.1 2 Sudoeste 7 Noroeste 0 -- -- 93
2018-02-01 00:00:00 6.4 3 Noroeste 7 Noroeste 0 -- -- 93
2018-01-31 23:00:00 7.1 0 Calma 5 Nordeste 0 -- -- 91
2018-01-31 22:00:00 7.2 2 Noroeste 7 Noroeste 0 -- -- 90
2018-01-31 21:00:00 8.3 2 Sudoeste 6 Nordeste 0 -- -- 87
2018-01-31 20:00:00 10.1 0 Calma 5 Noroeste 0 -- -- 83
2018-01-31 19:00:00 11.1 0 Calma 5 Noroeste 0 -- -- 80
2018-01-31 18:00:00 12.1 3 Sudoeste 8 Sudoeste 0 -- -- 77
2018-01-31 17:00:00 13 4 Sur 13 Sur 0 -- -- 75
2018-01-31 16:00:00 13.7 6 Sur 17 Sur 0 -- -- 73
2018-01-31 15:00:00 14.8 2 Sudeste 11 Sur 0 -- -- 63
2018-01-31 14:00:00 14.1 4 Sudeste 10 Sudeste 0 -- -- 66
2018-01-31 13:00:00 13.2 5 Sudoeste 11 Sudoeste 0 -- -- 71
2018-01-31 12:00:00 12.4 5 Sudoeste 10 Sur 0 -- -- 75
2018-01-31 11:00:00 11 3 Sudoeste 6 Sudoeste 0 -- -- 88
2018-01-31 10:00:00 9.6 3 Sudoeste 7 Sudoeste 0 -- -- 94
2018-01-31 09:00:00 8.1 3 Noroeste 6 Noroeste 0 -- -- 94
2018-01-31 08:00:00 8.8 0 Calma 4 Sudoeste 0 -- -- 93
2018-01-31 07:00:00 9.1 0 Calma 5 Sudoeste 0 -- -- 94
2018-01-31 06:00:00 9.8 0 Calma 5 Noroeste 0 -- -- 94
2018-01-31 05:00:00 9.6 3 Noroeste 9 Oeste 0 -- -- 94
2018-01-31 04:00:00 9.9 0 Calma 6 Este 0 -- -- 91
2018-01-31 03:00:00 10.1 0 Calma 8 Este 0 -- -- 91
2018-01-31 02:00:00 10.3 3 Nordeste 8 Nordeste 0 -- -- 90
2018-01-31 01:00:00 10.6 3 Nordeste 7 Nordeste 0 -- -- 89
2018-01-31 00:00:00 10.6 3 Nordeste 7 Este 0 -- -- 88
2018-01-30 23:00:00 10.5 2 Nordeste 6 Nordeste 0 -- -- 88
2018-01-30 22:00:00 10.4 0 Calma 6 Nordeste 0 -- -- 89
2018-01-30 21:00:00 10.3 3 Este 6 Este 0 -- -- 90
2018-01-30 20:00:00 10.2 0 Calma 5 Este 0 -- -- 91
2018-01-30 19:00:00 10.4 2 Sudeste 9 Sudeste 0 -- -- 90
2018-01-30 18:00:00 11.1 5 Sudeste 10 Sur 0 -- -- 86
2018-01-30 17:00:00 12.1 6 Sur 14 Sur 0 -- -- 82
2018-01-30 16:00:00 13.5 9 Sur 15 Sur 0 -- -- 76
2018-01-30 15:00:00 14.4 5 Sur 14 Sudeste 0 -- -- 71
2018-01-30 14:00:00 13.6 5 Sur 12 Sur 0 -- -- 72
2018-01-30 13:00:00 13.6 5 Sudoeste 10 Sur 0 -- -- 69
2018-01-30 12:00:00 12.1 3 Oeste 8 Sudoeste 0 -- -- 74
2018-01-30 11:00:00 10.3 3 Sur 6 Sur 0 -- -- 77
2018-01-30 10:00:00 7.9 2 Oeste 5 Sudoeste 0 -- -- 85
2018-01-30 09:00:00 5.2 0 Calma 5 Oeste 0 -- -- 94
2018-01-30 08:00:00 3.8 0 Calma 9 Sur 0 -- -- 93
2018-01-30 07:00:00 4.3 2 Norte 7 Norte 0 -- -- 93
2018-01-30 06:00:00 4.2 0 Calma 4 Norte 0 -- -- 92
2018-01-30 05:00:00 4.7 0 Calma 4 Norte 0 -- -- 91
2018-01-30 04:00:00 5.2 2 Noroeste 5 Noroeste 0 -- -- 90
2018-01-30 03:00:00 5.2 3 Noroeste 5 Noroeste 0 -- -- 91
2018-01-30 02:00:00 5.7 0 Calma 6 Noroeste 0 -- -- 90
2018-01-30 01:00:00 5.9 3 Noroeste 8 Noroeste 0 -- -- 90
2018-01-30 00:00:00 5.8 2 Noroeste 7 Noroeste 0 -- -- 89
2018-01-29 23:00:00 6.7 0 Calma 4 Noroeste 0 -- -- 88
2018-01-29 22:00:00 7.8 0 Calma 5 Noroeste 0 -- -- 88
2018-01-29 21:00:00 9.5 0 Calma 8 Nordeste 0 -- -- 87
2018-01-29 20:00:00 10.8 3 Nordeste 6 Norte 0 -- -- 87
2018-01-29 19:00:00 11.6 2 Este 6 Este 0 -- -- 88
2018-01-29 18:00:00 12.6 4 Sudeste 10 Sudoeste 0 -- -- 78
2018-01-29 17:00:00 13.9 7 Sur 14 Sur 0 -- -- 63
2018-01-29 16:00:00 15.2 6 Sur 15 Sudoeste 0 -- -- 54
2018-01-29 15:00:00 15.8 8 Sur 15 Sur 0 -- -- 54
2018-01-29 14:00:00 16.2 5 Sudeste 13 Sur 0 -- -- 55
2018-01-29 13:00:00 15.2 7 Sudoeste 12 Sudoeste 0 -- -- 57
2018-01-29 12:00:00 13.6 5 Sudeste 8 Sudeste 0 -- -- 64
2018-01-29 11:00:00 11.7 2 Sur 8 Oeste 0 -- -- 70
2018-01-29 10:00:00 8.7 2 Sudeste 5 Sudeste 0 -- -- 74
2018-01-29 09:00:00 5.5 0 Calma 9 Noroeste 0 -- -- 88
2018-01-29 08:00:00 4 3 Noroeste 8 Noroeste 0 -- -- 91
2018-01-29 07:00:00 4.2 0 Calma 5 Noroeste 0 -- -- 91
2018-01-29 06:00:00 4.1 0 Calma 4 Noroeste 0 -- -- 88
2018-01-29 05:00:00 5.3 0 Calma 8 Noroeste 0 -- -- 88
2018-01-29 04:00:00 4.7 4 Noroeste 10 Nordeste 0 -- -- 87
2018-01-29 03:00:00 5.5 0 Calma 9 Este 0 -- -- 87
2018-01-29 02:00:00 5.6 2 Norte 9 Noroeste 0 -- -- 84
2018-01-29 01:00:00 6.3 3 Noroeste 7 Noroeste 0 -- -- 82
2018-01-29 00:00:00 6.7 4 Noroeste 6 Noroeste 0 -- -- 82
2018-01-28 23:00:00 7.5 0 Calma 7 Noroeste 0 -- -- 80
2018-01-28 22:00:00 8.5 6 Noroeste 10 Noroeste 0 -- -- 75
2018-01-28 21:00:00 9.9 4 Norte 10 Noroeste 0 -- -- 71
2018-01-28 20:00:00 11 5 Noroeste 11 Oeste 0 -- -- 71
2018-01-28 19:00:00 12.8 3 Noroeste 6 Sudoeste 0 -- -- 65
2018-01-28 18:00:00 14.4 3 Sudoeste 9 Sudoeste 0 -- -- 59
2018-01-28 17:00:00 15.5 6 Sur 14 Sur 0 -- -- 56
2018-01-28 16:00:00 16.8 6 Sur 15 Sur 0 -- -- 51
2018-01-28 15:00:00 18.4 6 Sur 13 Sur 0 -- -- 45
2018-01-28 14:00:00 18.2 4 Sudeste 11 Sur 0 -- -- 44
2018-01-28 13:00:00 18.2 4 Sur 9 Sur 0 -- -- 43
2018-01-28 12:00:00 17.2 0 Calma 9 Este 0 -- -- 44
2018-01-28 11:00:00 15.9 4 Este 12 Nordeste 0 -- -- 48
2018-01-28 10:00:00 14 6 Nordeste 18 Nordeste 0 -- -- 51
2018-01-28 09:00:00 12 9 Norte 21 Nordeste 0 -- -- 55
2018-01-28 08:00:00 10.8 4 Nordeste 17 Norte 0 -- -- 58
2018-01-28 07:00:00 10.6 4 Norte 20 Nordeste 0 -- -- 58
2018-01-28 06:00:00 11.2 9 Nordeste 22 Nordeste 0 -- -- 55
2018-01-28 05:00:00 11.6 11 Nordeste 28 Norte 0 -- -- 54
2018-01-28 04:00:00 11.3 13 Nordeste 27 Norte 0 -- -- 55
2018-01-28 03:00:00 10.7 13 Nordeste 29 Nordeste 0 -- -- 56
2018-01-28 02:00:00 11 10 Nordeste 30 Nordeste 0 -- -- 55
2018-01-28 01:00:00 10.9 11 Nordeste 28 Nordeste 0 -- -- 55
2018-01-28 00:00:00 10.8 14 Nordeste 29 Nordeste 0 -- -- 56
2018-01-27 23:00:00 10.7 9 Nordeste 30 Norte 0 -- -- 58
2018-01-27 22:00:00 10.8 13 Nordeste 32 Norte 0 -- -- 56
2018-01-27 21:00:00 10.4 10 Norte 27 Nordeste 0 -- -- 58
2018-01-27 20:00:00 10.5 11 Nordeste 27 Nordeste 0 -- -- 58
2018-01-27 19:00:00 10.2 14 Nordeste 27 Nordeste 0 -- -- 60
2018-01-27 18:00:00 10.5 12 Nordeste 35 Norte 0 -- -- 61
2018-01-27 17:00:00 11 11 Nordeste 40 Este 0 -- -- 59
2018-01-27 16:00:00 12.1 14 Nordeste 42 Nordeste 0 -- -- 55
2018-01-27 15:00:00 12 18 Nordeste 45 Nordeste 0 -- -- 54
2018-01-27 14:00:00 11.5 17 Nordeste 40 Noroeste 0 -- -- 56
2018-01-27 13:00:00 11.6 16 Nordeste 46 Nordeste 0 -- -- 54
2018-01-27 12:00:00 10.7 14 Nordeste 36 Nordeste 0 -- -- 55
2018-01-27 11:00:00 10 12 Nordeste 47 Norte 0 -- -- 61
2018-01-27 10:00:00 9.2 18 Nordeste 53 Nordeste 0 -- -- 66
2018-01-27 09:00:00 9.4 17 Norte 44 Nordeste 0 -- -- 63
2018-01-27 08:00:00 9.8 14 Norte 42 Nordeste 0 -- -- 58
2018-01-27 07:00:00 10.1 10 Nordeste 43 Norte 0 -- -- 56
2018-01-27 06:00:00 10.4 15 Norte 48 Nordeste 0 -- -- 54
2018-01-27 05:00:00 9.9 14 Nordeste 39 Norte 0 -- -- 59
2018-01-27 04:00:00 9.8 14 Nordeste 61 Nordeste 0 -- -- 60
2018-01-27 03:00:00 10.3 15 Nordeste 44 Nordeste 0 -- -- 56
2018-01-27 02:00:00 10.2 17 Nordeste 40 Este 0 -- -- 58
2018-01-27 01:00:00 9.8 12 Nordeste 40 Norte 0 -- -- 64
2018-01-27 00:00:00 9.5 15 Nordeste 50 Norte 0 -- -- 68
2018-01-26 23:00:00 9.1 15 Nordeste 53 Nordeste 0 -- -- 71
2018-01-26 22:00:00 9.4 18 Nordeste 57 Norte 0 -- -- 70
2018-01-26 21:00:00 9.6 22 Nordeste 47 Nordeste 0 -- -- 64
2018-01-26 20:00:00 9.6 18 Nordeste 48 Nordeste 0 -- -- 64
2018-01-26 19:00:00 10.2 19 Nordeste 51 Nordeste 0 -- -- 57
2018-01-26 18:00:00 9.9 17 Nordeste 61 Nordeste 0 -- -- 59
2018-01-26 17:00:00 9.8 19 Nordeste 75 Nordeste 0 -- -- 60
2018-01-26 16:00:00 9.6 24 Nordeste 69 Nordeste 0 -- -- 62
2018-01-26 15:00:00 9.9 27 Nordeste 69 Nordeste 0 -- -- 59
2018-01-26 14:00:00 9.9 24 Nordeste 55 Norte 0 -- -- 57
2018-01-26 13:00:00 8.9 26 Nordeste 62 Norte 0 -- -- 68
2018-01-26 12:00:00 8.5 24 Nordeste 64 Nordeste 0 -- -- 72
2018-01-26 11:00:00 8.9 18 Nordeste 63 Nordeste 0.2 -- -- 73
2018-01-26 10:00:00 8.4 21 Nordeste 57 Nordeste 0 -- -- 77
2018-01-26 09:00:00 8.2 24 Nordeste 68 Nordeste 0.8 -- -- 79
2018-01-26 08:00:00 8 22 Nordeste 66 Norte 0.2 -- -- 81
2018-01-26 07:00:00 8.9 26 Nordeste 54 Nordeste 0 -- -- 71
2018-01-26 06:00:00 11.3 20 Nordeste 41 Nordeste 0 -- -- 61
2018-01-26 05:00:00 11.4 10 Nordeste 20 Nordeste 0 -- -- 61
2018-01-26 04:00:00 11.6 3 Nordeste 11 Nordeste 0 -- -- 67
2018-01-26 03:00:00 11.6 6 Nordeste 25 Nordeste 0 -- -- 71
2018-01-26 02:00:00 11.1 4 Nordeste 10 Nordeste 0 -- -- 88
2018-01-26 01:00:00 11.2 2 Nordeste 6 Nordeste 0 -- -- 88
2018-01-26 00:00:00 11.4 3 Nordeste 8 Nordeste 0 -- -- 87
2018-01-25 23:00:00 -- 4 Noroeste 8 Nordeste 0 -- -- --
2018-01-25 22:00:00 11.4 5 Nordeste 10 Nordeste 0 -- -- 84
2018-01-25 21:00:00 11.4 5 Este 10 Sudoeste 0 -- -- 83
2018-01-25 20:00:00 12.1 5 Sudoeste 18 Oeste 0 -- -- 80
2018-01-25 19:00:00 12.8 5 Sudoeste 20 Sudoeste 0 -- -- 79
2018-01-25 18:00:00 13.4 7 Sudoeste 26 Sudoeste 0 -- -- 76
2018-01-25 17:00:00 14.6 12 Oeste 36 Oeste 0 -- -- 72
2018-01-25 16:00:00 15.4 14 Oeste 39 Oeste 0 -- -- 68
2018-01-25 15:00:00 16 20 Oeste 41 Oeste 0 -- -- 66
2018-01-25 14:00:00 15.2 4 Sudoeste 35 Oeste 0 -- -- 67
2018-01-25 13:00:00 14.8 21 Oeste 38 Oeste 0 -- -- 69
2018-01-25 12:00:00 12.6 2 Este 8 Sudoeste 0 -- -- 81
2018-01-25 11:00:00 11.5 4 Sudoeste 10 Sudoeste 0 -- -- 83
2018-01-25 10:00:00 9.7 3 Sudoeste 6 Noroeste 0 -- -- 91
2018-01-25 09:00:00 8.2 0 Calma 4 Norte 0 -- -- 95
2018-01-25 08:00:00 7.8 2 Noroeste 6 Noroeste 0 -- -- 96
2018-01-25 07:00:00 7.7 0 Calma 5 Noroeste 0 -- -- 96
2018-01-25 06:00:00 7.8 0 Calma 7 Noroeste 0 -- -- 95
2018-01-25 05:00:00 8 5 Noroeste 7 Noroeste 0 -- -- 95
2018-01-25 04:00:00 8.7 2 Nordeste 5 Este 0 -- -- 96
2018-01-25 03:00:00 9.2 0 Calma 5 Este 0 -- -- 96
2018-01-25 02:00:00 -- 2 Este 8 Sudeste 0 -- -- --
2018-01-25 01:00:00 10.1 0 Calma 5 Sudoeste 0 -- -- 94
2018-01-25 00:00:00 10.6 3 Sudoeste 10 Oeste 0 -- -- 92
2018-01-24 23:00:00 11.6 5 Sudoeste 12 Sudoeste 0 -- -- 92
2018-01-24 22:00:00 11 0 Calma 5 Sur 0 -- -- 94
2018-01-24 21:00:00 11.5 0 Calma 5 Sudeste 0 -- -- 92
2018-01-24 20:00:00 12.2 0 Calma 4 Este 0 -- -- 91
2018-01-24 19:00:00 12.9 3 Sur 8 Este 0 -- -- 88
2018-01-24 18:00:00 13.7 4 Sudeste 14 Sudeste 0 -- -- 85
2018-01-24 17:00:00 14.9 7 Sur 23 Sur 0 -- -- 80
2018-01-24 16:00:00 -- 8 Sur 28 Sur 0 -- -- --
2018-01-24 15:00:00 17.3 11 Sur 21 Sur 0 -- -- 65
2018-01-24 14:00:00 16.8 7 Sur 17 Sur 0 -- -- 67
2018-01-24 13:00:00 15.7 8 Sudeste 14 Sudeste 0 -- -- 65
2018-01-24 12:00:00 14.5 5 Sur 10 Sur 0 -- -- 65
2018-01-24 11:00:00 12.9 0 Calma 5 Sudeste 0 -- -- 67
2018-01-24 10:00:00 9 0 Calma 5 Noroeste 0 -- -- 79
2018-01-24 09:00:00 6.6 0 Calma 6 Noroeste 0 -- -- 86
2018-01-24 08:00:00 6 3 Noroeste 6 Noroeste 0 -- -- 88
2018-01-24 07:00:00 6.7 2 Norte 12 Noroeste 0 -- -- 87
2018-01-24 06:00:00 6.8 6 Noroeste 9 Oeste 0 -- -- 86
2018-01-24 05:00:00 7 5 Noroeste 8 Noroeste 0 -- -- 86
2018-01-24 04:00:00 8 2 Oeste 10 Noroeste 0 -- -- 82
2018-01-24 03:00:00 8.8 5 Noroeste 12 Noroeste 0 -- -- 82
2018-01-24 02:00:00 9.7 7 Noroeste 19 Norte 0 -- -- 79
2018-01-24 01:00:00 11.3 6 Norte 17 Norte 0 -- -- 81
2018-01-24 00:00:00 13.5 6 Norte 24 Norte 0 -- -- 73
2018-01-23 23:00:00 14.5 11 Nordeste 38 Nordeste 0 -- -- 70
2018-01-23 22:00:00 14.7 17 Nordeste 37 Nordeste 0 -- -- 71
2018-01-23 21:00:00 14.9 11 Nordeste 28 Nordeste 0 -- -- 71
2018-01-23 20:00:00 15.7 8 Este 27 Nordeste 0 -- -- 66
2018-01-23 19:00:00 16.3 5 Nordeste 30 Nordeste 0 -- -- 60
2018-01-23 18:00:00 17.5 12 Nordeste 24 Nordeste 0 -- -- 51
2018-01-23 17:00:00 18.2 9 Nordeste 22 Nordeste 0 -- -- 42
2018-01-23 16:00:00 18.5 5 Sudeste 16 Sudeste 0 -- -- 58
2018-01-23 15:00:00 19.7 6 Sudoeste 10 Sudoeste 0 -- -- 47
2018-01-23 14:00:00 19.5 5 Sudoeste 11 Oeste 0 -- -- 46
2018-01-23 13:00:00 18.7 5 Sudoeste 9 Sudoeste 0 -- -- 50
2018-01-23 12:00:00 17.4 2 Sudeste 7 Noroeste 0 -- -- 51
2018-01-23 11:00:00 13.2 4 Oeste 9 Oeste 0 -- -- 72
2018-01-23 10:00:00 9.6 3 Oeste 10 Noroeste 0 -- -- 81
2018-01-23 09:00:00 8.3 3 Norte 13 Noroeste 0 -- -- 83
2018-01-23 08:00:00 7 6 Noroeste 15 Noroeste 0 -- -- 88
2018-01-23 07:00:00 8 8 Noroeste 13 Noroeste 0 -- -- 86
2018-01-23 06:00:00 8.4 2 Norte 11 Noroeste 0 -- -- 84
2018-01-23 05:00:00 8.4 6 Noroeste 13 Noroeste 0 -- -- 85
2018-01-23 04:00:00 9.6 8 Noroeste 14 Nordeste 0 -- -- 82
2018-01-23 03:00:00 13.8 6 Sur 33 Norte 0 -- -- 65
2018-01-23 02:00:00 13.9 10 Norte 27 Norte 0 -- -- 61
2018-01-23 01:00:00 10.1 8 Noroeste 15 Noroeste 0 -- -- 86
2018-01-23 00:00:00 14.2 8 Norte 19 Nordeste 0 -- -- 58
2018-01-22 23:00:00 13 7 Norte 27 Norte 0 -- -- 81
2018-01-22 22:00:00 12.8 6 Norte 14 Norte 0 -- -- 83
2018-01-22 21:00:00 11.1 3 Noroeste 7 Noroeste 0 -- -- 89
2018-01-22 20:00:00 12.1 3 Nordeste 7 Este 0 -- -- 87
2018-01-22 19:00:00 13.1 0 Calma 4 Norte 0 -- -- 84
2018-01-22 18:00:00 14.2 2 Noroeste 6 Noroeste 0 -- -- 79
2018-01-22 17:00:00 14.8 0 Calma 8 Nordeste 0 -- -- 75
2018-01-22 16:00:00 15.1 4 Este 8 Norte 0 -- -- 73
2018-01-22 15:00:00 15.6 2 Este 5 Sudeste 0 -- -- 71
2018-01-22 14:00:00 15.7 0 Calma 6 Sur 0 -- -- 70
2018-01-22 13:00:00 15.9 0 Calma 5 Sur 0 -- -- 65
2018-01-22 12:00:00 15.8 0 Calma 8 Este 0 -- -- 64
2018-01-22 11:00:00 14 4 Sudeste 8 Este 0 -- -- 70
2018-01-22 10:00:00 11.1 3 Este 9 Este 0 -- -- 77
2018-01-22 09:00:00 8.7 2 Sudeste 8 Noroeste 0 -- -- 88
2018-01-22 08:00:00 7.9 3 Este 12 Noroeste 0 -- -- 88
2018-01-22 07:00:00 8.1 6 Noroeste 11 Noroeste 0 -- -- 88
2018-01-22 06:00:00 7.8 4 Noroeste 6 Noroeste 0 -- -- 89
2018-01-22 05:00:00 8.8 3 Sudeste 12 Noroeste 0 -- -- 86
2018-01-22 04:00:00 8.4 6 Noroeste 9 Noroeste 0 -- -- 89
2018-01-22 03:00:00 9.2 3 Sudeste 10 Noroeste 0 -- -- 86
2018-01-22 02:00:00 9.8 7 Noroeste 14 Noroeste 0 -- -- 84
2018-01-22 01:00:00 10.1 5 Noroeste 9 Noroeste 0 -- -- 84
2018-01-22 00:00:00 11.3 3 Este 11 Noroeste 0 -- -- 81